Time;durP1;ratioP1;P1;durP2;ratioP2;P2;SDS_P1;SDS_P2;PMS_P1;PMS_P2;Temp;Humidity;BMP_temperature;BMP_pressure;BME280_temperature;BME280_humidity;BME280_pressure;Samples;Min_cycle;Max_cycle;Signal;HPM_P1;HPM_P2
2023/03/13 00:00:55;;;;;;;16.77;2.80;;;13.60;99.90;;;;;;5070864;28;20040;-73
2023/03/13 00:03:21;;;;;;;14.02;2.70;;;13.70;99.90;;;;;;5070537;28;20048;-74
2023/03/13 00:05:48;;;;;;;22.05;2.70;;;13.70;99.90;;;;;;5070765;28;20017;-73
2023/03/13 00:08:15;;;;;;;16.58;2.47;;;13.70;99.90;;;;;;5070637;28;20020;-74
2023/03/13 00:10:41;;;;;;;16.10;2.60;;;13.80;99.90;;;;;;5070299;28;20048;-73
2023/03/13 00:13:08;;;;;;;19.38;2.80;;;13.80;99.90;;;;;;5070530;28;20277;-73
2023/03/13 00:15:35;;;;;;;;;;;13.80;99.90;;;;;;5071448;28;20478;-74
2023/03/13 00:18:01;;;;;;;20.77;2.67;;;13.80;99.90;;;;;;5070563;28;19905;-74
2023/03/13 00:20:27;;;;;;;24.73;3.03;;;13.80;99.90;;;;;;5070341;28;20536;-74
2023/03/13 00:22:53;;;;;;;;;;;13.80;99.90;;;;;;5070582;28;20052;-73
2023/03/13 00:25:19;;;;;;;15.83;2.20;;;13.70;99.90;;;;;;5070481;28;19905;-74
2023/03/13 00:27:45;;;;;;;19.75;3.45;;;13.70;99.90;;;;;;5070619;28;20353;-73
2023/03/13 00:30:12;;;;;;;22.00;4.18;;;13.70;99.90;;;;;;5070742;28;20396;-74
2023/03/13 00:32:43;;;;;;;16.50;2.38;;;13.60;99.90;;;;;;5070281;28;20032;-74
2023/03/13 00:35:09;;;;;;;19.50;2.88;;;13.60;99.90;;;;;;5070800;28;20025;-74
2023/03/13 00:37:35;;;;;;;19.40;2.97;;;13.70;99.90;;;;;;5070207;28;20170;-73
2023/03/13 00:40:03;;;;;;;19.77;3.33;;;13.60;99.90;;;;;;5070329;28;20498;-74
2023/03/13 00:42:29;;;;;;;19.45;2.95;;;13.60;99.90;;;;;;5070280;28;20056;-74
2023/03/13 00:44:55;;;;;;;21.13;2.77;;;13.60;99.90;;;;;;5073370;28;20025;-73
2023/03/13 00:47:21;;;;;;;16.92;2.90;;;13.50;99.90;;;;;;5073997;28;20271;-74
2023/03/13 00:49:47;;;;;;;16.83;3.17;;;13.50;99.90;;;;;;5074523;28;20025;-73
2023/03/13 00:52:13;;;;;;;26.08;3.85;;;13.50;99.90;;;;;;5073652;28;20028;-73
2023/03/13 00:54:40;;;;;;;15.50;3.15;;;13.50;99.90;;;;;;5074126;28;20384;-74
2023/03/13 00:57:06;;;;;;;27.20;3.47;;;13.50;99.90;;;;;;5055876;28;20058;-73
2023/03/13 00:59:32;;;;;;;19.60;3.30;;;13.40;99.90;;;;;;5073847;28;20134;-73
2023/03/13 01:01:58;;;;;;;20.97;3.27;;;13.50;99.90;;;;;;5067754;28;20024;-74
2023/03/13 01:04:25;;;;;;;21.50;3.57;;;13.50;99.90;;;;;;5094198;28;20046;-74
2023/03/13 01:06:51;;;;;;;23.92;3.33;;;13.40;99.90;;;;;;5073443;28;20050;-74
2023/03/13 01:09:17;;;;;;;17.53;3.00;;;13.40;99.90;;;;;;5073360;28;20044;-72
2023/03/13 01:11:44;;;;;;;16.88;2.45;;;13.30;99.90;;;;;;5055275;28;20135;-73
2023/03/13 01:14:16;;;;;;;17.65;3.28;;;13.20;99.90;;;;;;5073698;28;20021;-74
2023/03/13 01:16:42;;;;;;;17.20;2.88;;;13.30;99.90;;;;;;5073844;28;20025;-74
2023/03/13 01:19:11;;;;;;;16.37;2.87;;;13.30;99.90;;;;;;5073771;28;20468;-73
2023/03/13 01:21:37;;;;;;;19.42;3.10;;;13.40;99.90;;;;;;5073220;28;20263;-73
2023/03/13 01:24:04;;;;;;;24.63;3.35;;;13.40;99.90;;;;;;5073342;28;20100;-73
2023/03/13 01:26:31;;;;;;;22.20;3.03;;;13.40;99.90;;;;;;5055341;28;20381;-73
2023/03/13 01:28:57;;;;;;;18.52;3.05;;;13.40;99.90;;;;;;5073432;28;20091;-73
2023/03/13 01:31:29;;;;;;;18.50;3.07;;;13.30;99.90;;;;;;5073258;28;20482;-74
2023/03/13 01:33:58;;;;;;;19.50;3.05;;;13.30;99.90;;;;;;5073472;28;20024;-73
2023/03/13 01:36:25;;;;;;;17.35;3.55;;;13.20;99.90;;;;;;5072916;28;20132;-73
2023/03/13 01:38:54;;;;;;;18.77;3.05;;;13.30;99.90;;;;;;5073454;28;20040;-73
2023/03/13 01:41:21;;;;;;;23.92;4.45;;;13.30;99.90;;;;;;5073402;28;20487;-72
2023/03/13 01:43:47;;;;;;;;;;;13.40;99.90;;;;;;5073880;28;20016;-73
2023/03/13 01:46:16;;;;;;;21.27;3.03;;;13.40;99.90;;;;;;5073175;28;20006;-73
2023/03/13 01:49:01;;;;;;;19.52;2.78;;;13.40;99.90;;;;;;5073497;28;20024;-73
2023/03/13 01:51:43;;;;;;;24.45;3.60;;;13.40;99.90;;;;;;5074158;28;20032;-73
2023/03/13 01:54:29;;;;;;;18.70;2.88;;;13.40;99.90;;;;;;5054831;28;20386;-73
2023/03/13 01:57:04;;;;;;;23.48;3.55;;;13.40;99.90;;;;;;5073289;28;20419;-73
2023/03/13 01:59:36;;;;;;;19.27;3.15;;;13.30;99.90;;;;;;5072975;28;20075;-73
2023/03/13 02:02:04;;;;;;;23.85;4.75;;;13.20;99.90;;;;;;5072883;28;20024;-72
2023/03/13 02:04:36;;;;;;;17.27;2.90;;;13.30;99.90;;;;;;5072636;28;20021;-73
2023/03/13 02:07:07;;;;;;;24.48;3.58;;;13.30;99.90;;;;;;5072458;28;20016;-75
2023/03/13 02:09:34;;;;;;;20.95;3.58;;;13.30;99.90;;;;;;5072753;28;20040;-73
2023/03/13 02:12:06;;;;;;;18.00;2.92;;;13.30;99.90;;;;;;5072642;28;20035;-73
2023/03/13 02:14:35;;;;;;;19.05;3.05;;;13.30;99.90;;;;;;5072785;28;20100;-74
2023/03/13 02:17:03;;;;;;;16.35;3.00;;;13.30;99.90;;;;;;5072860;28;20021;-74
2023/03/13 02:19:53;;;;;;;23.83;3.90;;;13.40;99.90;;;;;;5072711;28;20021;-74
2023/03/13 02:22:37;;;;;;;22.60;3.65;;;13.30;99.90;;;;;;5087546;28;20028;-74
2023/03/13 02:25:06;;;;;;;19.33;3.20;;;13.40;99.90;;;;;;5072963;28;20066;-74
2023/03/13 02:27:34;;;;;;;21.17;3.58;;;13.30;99.90;;;;;;5072839;28;20108;-74
2023/03/13 02:30:04;;;;;;;19.58;3.40;;;13.30;99.90;;;;;;5072367;28;20102;-74
2023/03/13 02:32:31;;;;;;;18.13;3.72;;;13.40;99.90;;;;;;5072267;28;20333;-74
2023/03/13 02:35:04;;;;;;;17.50;3.03;;;13.40;99.90;;;;;;5072360;28;20052;-74
2023/03/13 02:37:32;;;;;;;14.05;3.03;;;13.40;99.90;;;;;;5072151;28;20539;-73
2023/03/13 02:40:01;;;;;;;20.85;2.78;;;13.40;99.90;;;;;;5072488;28;20432;-74
2023/03/13 02:42:28;;;;;;;18.95;4.00;;;13.40;99.90;;;;;;5072365;28;20036;-74
2023/03/13 02:44:54;;;;;;;22.70;3.10;;;13.30;99.90;;;;;;5072246;28;20426;-74
2023/03/13 02:47:22;;;;;;;19.97;3.40;;;13.40;99.90;;;;;;5072307;28;20031;-75
2023/03/13 02:49:52;;;;;;;22.42;3.55;;;13.40;99.90;;;;;;5072302;28;20044;-74
2023/03/13 02:52:26;;;;;;;16.27;3.05;;;13.30;99.90;;;;;;5072039;28;20036;-74
2023/03/13 02:55:01;;;;;;;18.52;3.38;;;13.30;99.90;;;;;;5072307;28;20021;-74
2023/03/13 02:57:28;;;;;;;24.83;3.30;;;13.40;99.90;;;;;;5072142;28;20028;-74
2023/03/13 02:59:54;;;;;;;12.85;2.85;;;13.40;99.90;;;;;;5071848;28;20055;-74
2023/03/13 03:02:21;;;;;;;24.73;4.10;;;13.40;99.90;;;;;;5071992;28;20031;-74
2023/03/13 03:04:47;;;;;;;21.02;3.13;;;13.30;99.90;;;;;;5071957;28;20110;-74
2023/03/13 03:07:15;;;;;;;20.10;3.53;;;13.40;99.90;;;;;;5071023;28;20484;-70
2023/03/13 03:09:45;;;;;;;16.73;3.08;;;13.40;99.90;;;;;;5053348;28;20479;-70
2023/03/13 03:12:13;;;;;;;23.50;3.10;;;13.40;99.90;;;;;;5071570;28;20482;-70
2023/03/13 03:14:39;;;;;;;17.35;3.55;;;13.30;99.90;;;;;;5072022;28;20507;-75
2023/03/13 03:17:05;;;;;;;18.25;3.72;;;13.30;99.90;;;;;;5071934;28;20134;-75
2023/03/13 03:19:31;;;;;;;18.52;3.58;;;13.20;99.90;;;;;;5086927;28;20033;-74
2023/03/13 03:21:57;;;;;;;13.73;3.17;;;13.20;99.90;;;;;;5071190;28;20415;-74
2023/03/13 03:24:23;;;;;;;17.43;2.87;;;13.20;99.90;;;;;;5071427;28;20035;-74
2023/03/13 03:26:49;;;;;;;17.30;2.93;;;13.20;99.90;;;;;;5070939;28;20067;-73
2023/03/13 03:29:16;;;;;;;17.33;3.20;;;13.20;99.90;;;;;;5070971;28;20036;-74
2023/03/13 03:31:42;;;;;;;22.98;3.70;;;13.20;99.90;;;;;;5071054;28;20319;-73
2023/03/13 03:34:08;;;;;;;15.17;3.07;;;13.10;99.90;;;;;;5070912;28;20025;-73
2023/03/13 03:36:34;;;;;;;19.10;2.93;;;13.10;99.90;;;;;;5070818;28;20143;-74
2023/03/13 03:39:00;;;;;;;23.02;3.28;;;13.10;99.90;;;;;;5071280;28;20783;-74
2023/03/13 03:41:26;;;;;;;19.77;3.43;;;13.10;99.90;;;;;;5070731;28;20028;-74
2023/03/13 03:43:52;;;;;;;14.55;2.60;;;13.00;99.90;;;;;;5071172;28;20634;-74
2023/03/13 03:46:18;;;;;;;20.43;3.93;;;13.00;99.90;;;;;;5071181;28;20036;-74
2023/03/13 03:48:44;;;;;;;18.67;3.40;;;13.00;99.90;;;;;;5070875;28;20027;-74
2023/03/13 03:51:11;;;;;;;23.23;3.75;;;13.00;99.90;;;;;;5070853;28;20104;-74
2023/03/13 03:53:37;;;;;;;21.73;3.15;;;13.00;99.90;;;;;;5070195;28;20025;-74
2023/03/13 03:56:03;;;;;;;18.73;3.00;;;12.90;99.90;;;;;;5071279;28;20017;-74
2023/03/13 03:58:29;;;;;;;17.80;2.97;;;12.90;99.90;;;;;;5071462;28;20029;-74
2023/03/13 04:00:58;;;;;;;16.50;2.73;;;12.90;99.90;;;;;;5071632;28;20020;-73
2023/03/13 04:03:25;;;;;;;20.42;4.10;;;12.90;99.90;;;;;;5071311;28;20262;-73
2023/03/13 04:05:51;;;;;;;;;;;12.90;99.90;;;;;;5071828;28;20047;-74
2023/03/13 04:08:18;;;;;;;14.67;2.87;;;12.90;99.90;;;;;;5071758;28;20237;-73
2023/03/13 04:10:45;;;;;;;16.73;3.17;;;12.90;99.90;;;;;;5071548;28;20296;-74
2023/03/13 04:13:11;;;;;;;23.20;3.67;;;12.80;99.90;;;;;;5053634;28;20063;-72
2023/03/13 04:15:41;;;;;;;24.07;3.80;;;12.80;99.90;;;;;;5071983;28;20101;-74
2023/03/13 04:18:07;;;;;;;21.65;3.08;;;12.80;99.90;;;;;;5071940;28;20031;-74
2023/03/13 04:20:34;;;;;;;16.77;3.13;;;12.70;99.90;;;;;;5075858;28;20068;-73
2023/03/13 04:23:00;;;;;;;19.60;3.83;;;12.70;99.90;;;;;;5076128;28;20043;-77
2023/03/13 04:25:26;;;;;;;20.43;3.53;;;12.70;99.90;;;;;;5076883;28;20044;-76
2023/03/13 04:27:52;;;;;;;18.92;4.15;;;12.70;99.90;;;;;;5076905;28;20078;-77
2023/03/13 04:30:19;;;;;;;17.45;3.10;;;12.60;99.90;;;;;;5076399;28;20049;-77
2023/03/13 04:32:45;;;;;;;22.55;3.58;;;12.60;99.90;;;;;;5058339;28;20449;-77
2023/03/13 04:35:12;;;;;;;16.73;2.90;;;12.60;99.90;;;;;;5058196;28;20032;-77
2023/03/13 04:37:40;;;;;;;23.98;3.17;;;12.50;99.90;;;;;;5075805;28;20263;-77
2023/03/13 04:40:08;;;;;;;21.17;3.93;;;12.50;99.90;;;;;;5076884;28;20393;-77
2023/03/13 04:42:34;;;;;;;14.55;2.80;;;12.50;99.90;;;;;;5057966;28;20028;-77
2023/03/13 04:45:00;;;;;;;15.98;3.05;;;12.50;99.90;;;;;;5057731;28;20025;-77
2023/03/13 04:47:26;;;;;;;22.75;3.05;;;12.50;99.90;;;;;;5057386;28;20032;-77
2023/03/13 04:49:52;;;;;;;23.75;3.47;;;12.50;99.90;;;;;;5075159;28;20103;-77
2023/03/13 04:52:18;;;;;;;14.50;3.57;;;12.50;99.90;;;;;;5074966;28;20472;-77
2023/03/13 04:54:44;;;;;;;21.85;3.90;;;12.50;99.90;;;;;;5091173;28;20060;-77
2023/03/13 04:57:10;;;;;;;13.47;2.90;;;12.40;99.90;;;;;;5075500;28;20059;-77
2023/03/13 04:59:37;;;;;;;;;;;12.50;99.90;;;;;;5075267;28;20103;-77
2023/03/13 05:02:05;;;;;;;22.83;3.10;;;12.60;99.90;;;;;;5075652;28;20395;-77
2023/03/13 05:04:31;;;;;;;13.40;3.03;;;12.60;99.90;;;;;;5090966;28;20502;-77
2023/03/13 05:07:00;;;;;;;16.10;2.97;;;12.70;99.90;;;;;;5057435;28;20444;-76
2023/03/13 05:09:28;;;;;;;17.88;3.45;;;12.70;99.90;;;;;;5075320;28;20098;-77
2023/03/13 05:11:54;;;;;;;19.73;3.03;;;12.70;99.90;;;;;;5075508;28;20033;-77
2023/03/13 05:14:21;;;;;;;12.20;2.77;;;12.80;99.90;;;;;;5075836;28;20021;-78
2023/03/13 05:16:47;;;;;;;16.15;3.00;;;12.80;99.90;;;;;;5075885;28;20112;-78
2023/03/13 05:19:13;;;;;;;19.37;3.07;;;12.80;99.90;;;;;;5075859;28;20143;-77
2023/03/13 05:21:40;;;;;;;14.63;3.00;;;12.90;99.90;;;;;;5075716;28;20480;-77
2023/03/13 05:24:07;;;;;;;10.48;3.22;;;12.90;99.90;;;;;;5075953;28;20111;-77
2023/03/13 05:26:33;;;;;;;17.98;2.92;;;13.00;99.90;;;;;;5057749;28;20021;-77
2023/03/13 05:28:59;;;;;;;13.50;2.60;;;13.00;99.90;;;;;;5075897;28;20541;-77
2023/03/13 05:31:27;;;;;;;10.90;2.40;;;13.00;99.90;;;;;;5075768;28;20079;-77
2023/03/13 05:33:54;;;;;;;11.70;2.72;;;13.00;99.90;;;;;;5075872;28;20138;-76
2023/03/13 05:36:21;;;;;;;7.90;1.90;;;13.10;99.90;;;;;;5075718;28;20025;-77
2023/03/13 05:38:47;;;;;;;;;;;13.00;99.90;;;;;;5075985;28;20036;-77
2023/03/13 05:41:14;;;;;;;13.02;2.35;;;13.20;99.90;;;;;;5075919;28;20470;-72
2023/03/13 05:43:40;;;;;;;12.02;2.38;;;13.20;99.90;;;;;;5066979;28;20041;-77
2023/03/13 05:46:06;;;;;;;14.07;2.60;;;13.30;99.90;;;;;;5075639;28;20074;-77
2023/03/13 05:48:33;;;;;;;9.60;2.17;;;13.30;99.90;;;;;;5075648;28;20028;-78
2023/03/13 05:50:59;;;;;;;12.17;2.33;;;13.40;99.90;;;;;;5075330;28;20029;-76
2023/03/13 05:53:25;;;;;;;13.93;2.20;;;13.40;99.90;;;;;;5075183;28;20361;-77
2023/03/13 05:55:52;;;;;;;12.25;2.65;;;13.50;99.90;;;;;;5075224;28;20017;-77
2023/03/13 05:58:18;;;;;;;;;;;13.70;99.90;;;;;;5075592;28;20074;-77
2023/03/13 06:00:44;;;;;;;13.30;2.77;;;14.90;99.90;;;;;;5075056;28;19908;-76
2023/03/13 06:03:13;;;;;;;14.30;2.80;;;16.50;99.90;;;;;;5075328;28;20754;-78
2023/03/13 06:05:40;;;;;;;16.38;4.00;;;17.90;99.90;;;;;;5075819;28;20025;-76
2023/03/13 06:08:06;;;;;;;16.03;3.00;;;19.10;99.90;;;;;;5074720;28;20032;-74
2023/03/13 06:10:32;;;;;;;14.73;2.40;;;20.00;99.90;;;;;;5074185;28;20298;-75
2023/03/13 06:12:58;;;;;;;13.27;2.67;;;20.90;99.90;;;;;;5074397;28;20423;-76
2023/03/13 06:15:24;;;;;;;9.88;2.55;;;21.80;99.90;;;;;;5074896;28;20417;-76
2023/03/13 06:17:50;;;;;;;16.23;2.80;;;21.30;99.90;;;;;;5074590;28;20029;-75
2023/03/13 06:20:17;;;;;;;12.00;2.40;;;21.90;99.90;;;;;;5075040;28;20118;-76
2023/03/13 06:22:43;;;;;;;13.80;3.08;;;23.10;99.90;;;;;;5074593;28;20028;-76
2023/03/13 06:25:10;;;;;;;12.10;3.17;;;24.00;99.90;;;;;;5075091;28;20103;-75
2023/03/13 06:27:37;;;;;;;11.57;3.00;;;23.90;99.90;;;;;;5074710;28;20165;-76
2023/03/13 06:30:04;;;;;;;12.57;3.13;;;23.40;99.90;;;;;;5074405;28;20428;-76
2023/03/13 06:32:30;;;;;;;10.10;2.55;;;23.40;99.90;;;;;;5074457;28;20037;-75
2023/03/13 06:34:58;;;;;;;10.40;2.75;;;24.50;99.90;;;;;;5074079;28;20021;-75
2023/03/13 06:37:24;;;;;;;10.57;2.63;;;25.10;99.90;;;;;;5084023;28;20032;-75
2023/03/13 06:39:50;;;;;;;10.27;2.60;;;25.60;99.90;;;;;;5093812;28;20413;-76
2023/03/13 06:42:18;;;;;;;14.02;3.53;;;25.20;99.90;;;;;;5074257;28;20035;-75
2023/03/13 06:44:44;;;;;;;11.30;3.08;;;24.40;99.90;;;;;;5093331;28;20024;-75
2023/03/13 06:47:11;;;;;;;11.93;3.40;;;23.50;99.90;;;;;;5093618;28;20031;-76
2023/03/13 06:49:37;;;;;;;9.52;2.75;;;23.40;99.90;;;;;;5092689;28;20440;-75
2023/03/13 06:52:03;;;;;;;11.75;2.28;;;24.10;99.90;;;;;;5093007;28;20065;-75
2023/03/13 06:54:29;;;;;;;14.57;3.03;;;25.10;99.90;;;;;;5093058;28;20030;-74
2023/03/13 06:56:55;;;;;;;;;;;25.50;99.90;;;;;;5074811;28;20035;-74
2023/03/13 06:59:23;;;;;;;12.68;2.50;;;24.90;99.90;;;;;;5092678;28;19904;-73
2023/03/13 07:01:49;;;;;;;8.38;2.08;;;25.10;99.90;;;;;;5092743;28;20020;-73
2023/03/13 07:04:16;;;;;;;21.05;2.67;;;25.00;99.90;;;;;;5092582;28;20020;-74
2023/03/13 07:06:43;;;;;;;9.75;2.50;;;25.60;99.90;;;;;;5069575;28;20060;-73
2023/03/13 07:09:15;;;;;;;12.85;2.65;;;24.40;99.90;;;;;;5072425;28;20048;-73
2023/03/13 07:11:41;;;;;;;14.02;2.15;;;23.20;99.90;;;;;;5072201;28;20477;-73
2023/03/13 07:14:07;;;;;;;9.93;2.17;;;21.00;99.90;;;;;;5087479;28;20085;-72
2023/03/13 07:16:33;;;;;;;10.73;2.20;;;21.10;99.90;;;;;;5053715;28;20028;-73
2023/03/13 07:18:59;;;;;;;10.10;2.35;;;22.90;99.90;;;;;;5071723;28;20032;-74
2023/03/13 07:21:25;;;;;;;17.02;2.92;;;23.70;99.90;;;;;;5072034;28;20044;-74
2023/03/13 07:23:51;;;;;;;11.80;2.63;;;22.80;99.90;;;;;;5072116;28;20024;-75
2023/03/13 07:26:19;;;;;;;9.15;2.33;;;21.40;99.90;;;;;;5072108;28;20032;-77
2023/03/13 07:28:45;;;;;;;9.90;2.30;;;20.50;99.90;;;;;;5076898;28;20021;-76
2023/03/13 07:31:17;;;;;;;12.68;2.60;;;20.40;99.90;;;;;;5075645;28;20465;-77
2023/03/13 07:33:43;;;;;;;9.25;2.33;;;20.20;99.90;;;;;;5073493;28;20107;-77
2023/03/13 07:36:14;;;;;;;9.55;2.08;;;22.20;99.90;;;;;;5072716;28;20033;-78
2023/03/13 07:38:41;;;;;;;9.15;1.88;;;22.20;99.90;;;;;;5052341;28;20512;-75
2023/03/13 07:41:12;;;;;;;9.05;2.38;;;21.80;99.90;;;;;;5052456;28;20086;-74
2023/03/13 07:43:38;;;;;;;10.30;2.38;;;23.10;99.90;;;;;;5067985;28;20108;-75
2023/03/13 07:46:07;;;;;;;9.43;2.70;;;23.90;99.90;;;;;;5052640;28;20025;-76
2023/03/13 07:48:35;;;;;;;7.10;1.83;;;24.10;99.90;;;;;;5058302;28;20078;-70
2023/03/13 07:51:03;;;;;;;9.48;2.47;;;23.90;99.90;;;;;;5054387;28;20021;-76
2023/03/13 07:53:29;;;;;;;12.00;2.28;;;23.40;99.90;;;;;;5071729;28;20116;-77
2023/03/13 07:55:59;;;;;;;;;;;23.20;99.90;;;;;;5073223;28;20048;-77
2023/03/13 07:58:28;;;;;;;7.32;1.77;;;21.90;99.90;;;;;;5072365;28;19904;-74
2023/03/13 08:00:54;;;;;;;9.85;2.13;;;21.20;99.90;;;;;;5072224;28;20021;-77
2023/03/13 08:03:28;;;;;;;8.20;2.15;;;21.60;99.90;;;;;;5072108;28;20032;-72
2023/03/13 08:05:59;;;;;;;10.68;1.88;;;22.10;99.90;;;;;;5072468;28;20017;-78
2023/03/13 08:08:25;;;;;;;8.60;2.10;;;22.60;99.90;;;;;;5072289;28;20315;-78
2023/03/13 08:10:52;;;;;;;8.10;2.05;;;23.10;99.90;;;;;;5071770;28;20174;-77
2023/03/13 08:13:19;;;;;;;10.70;2.50;;;23.10;99.90;;;;;;5072324;28;20033;-74
2023/03/13 08:15:45;;;;;;;9.07;2.65;;;23.20;99.90;;;;;;5054648;28;20060;-78
2023/03/13 08:18:12;;;;;;;11.40;2.50;;;23.00;99.90;;;;;;5072548;28;20105;-79
2023/03/13 08:20:39;;;;;;;11.73;2.50;;;23.40;99.90;;;;;;5087665;28;20040;-80
2023/03/13 08:23:07;;;;;;;10.50;2.33;;;23.50;99.90;;;;;;5072031;28;20357;-79
2023/03/13 08:25:33;;;;;;;8.65;2.42;;;23.70;99.90;;;;;;5072254;28;20111;-79
2023/03/13 08:28:02;;;;;;;14.70;3.00;;;23.60;99.90;;;;;;5072635;28;20020;-77
2023/03/13 08:30:29;;;;;;;10.98;2.58;;;23.40;99.90;;;;;;5072208;28;20078;-78
2023/03/13 08:33:00;;;;;;;17.55;3.38;;;22.90;99.90;;;;;;5054452;28;20472;-78
2023/03/13 08:35:28;;;;;;;13.68;3.03;;;22.50;99.90;;;;;;5072813;28;20051;-78
2023/03/13 08:37:54;;;;;;;10.02;2.47;;;22.20;99.90;;;;;;5087700;28;20532;-79
2023/03/13 08:40:21;;;;;;;18.17;3.75;;;22.20;99.90;;;;;;5072199;28;20063;-78
2023/03/13 08:42:47;;;;;;;14.10;3.80;;;22.40;99.90;;;;;;5053767;28;20102;-76
2023/03/13 08:45:14;;;;;;;13.38;2.97;;;22.40;99.90;;;;;;5072110;28;20028;-76
2023/03/13 08:47:40;;;;;;;13.88;2.67;;;22.50;99.90;;;;;;5071916;28;20465;-77
2023/03/13 08:50:06;;;;;;;11.23;2.55;;;22.40;99.90;;;;;;5071325;28;20037;-78
2023/03/13 08:52:32;;;;;;;14.05;2.72;;;22.20;99.90;;;;;;5070777;28;20032;-76
2023/03/13 08:54:58;;;;;;;13.57;2.88;;;22.10;99.90;;;;;;5072423;28;20028;-78
2023/03/13 08:57:24;;;;;;;13.63;3.05;;;22.20;99.90;;;;;;5071256;28;20028;-78
2023/03/13 08:59:50;;;;;;;14.35;3.17;;;22.50;99.90;;;;;;5086791;28;20029;-76
2023/03/13 09:02:18;;;;;;;14.30;2.53;;;22.60;99.90;;;;;;5071230;28;20031;-77
2023/03/13 09:04:46;;;;;;;11.55;2.65;;;22.50;99.90;;;;;;5087231;28;20029;-76
2023/03/13 09:07:13;;;;;;;9.50;2.38;;;22.30;99.90;;;;;;5074509;28;20081;-76
2023/03/13 09:09:39;;;;;;;13.70;3.30;;;22.20;99.90;;;;;;5074214;28;20182;-77
2023/03/13 09:12:05;;;;;;;14.63;3.13;;;22.20;99.90;;;;;;5074662;28;20068;-77
2023/03/13 09:14:32;;;;;;;22.75;3.35;;;22.10;99.90;;;;;;5073930;28;20080;-73
2023/03/13 09:16:58;;;;;;;14.07;3.80;;;21.90;99.90;;;;;;5074889;28;20051;-76
2023/03/13 09:19:25;;;;;;;15.45;2.78;;;21.70;99.90;;;;;;5074745;28;20016;-76
2023/03/13 09:21:51;;;;;;;16.58;3.83;;;21.60;99.90;;;;;;5074965;28;20467;-75
2023/03/13 09:24:17;;;;;;;16.92;3.60;;;21.60;99.90;;;;;;5057645;28;20040;-75
2023/03/13 09:26:44;;;;;;;15.30;4.63;;;21.50;99.90;;;;;;5074742;28;20024;-77
2023/03/13 09:29:10;;;;;;;14.32;3.20;;;21.40;99.90;;;;;;5075514;28;20035;-77
2023/03/13 09:31:37;;;;;;;;;;;21.40;99.90;;;;;;5075928;28;20415;-77
2023/03/13 09:34:13;;;;;;;17.30;3.55;;;21.20;99.90;;;;;;5074804;28;19927;-78
2023/03/13 09:36:39;;;;;;;21.15;4.82;;;21.20;99.90;;;;;;5074678;28;20028;-78
2023/03/13 09:39:05;;;;;;;13.45;3.60;;;21.20;99.90;;;;;;5074720;28;20166;-78
2023/03/13 09:41:39;;;;;;;14.27;3.75;;;21.00;99.90;;;;;;5075003;28;20072;-77
2023/03/13 09:44:14;;;;;;;15.10;3.80;;;20.80;99.90;;;;;;5080518;28;20079;-77
2023/03/13 09:46:56;;;;;;;17.15;4.60;;;20.90;99.90;;;;;;5092904;28;20028;-77
2023/03/13 09:49:30;;;;;;;18.10;4.65;;;20.70;99.90;;;;;;5083208;28;20036;-77
2023/03/13 09:52:24;;;;;;;16.60;4.38;;;20.70;99.90;;;;;;5075760;28;20110;-78
2023/03/13 09:55:24;;;;;;;16.25;3.83;;;20.50;99.90;;;;;;5046141;28;20033;-77
2023/03/13 09:58:02;;;;;;;15.02;4.03;;;20.50;99.90;;;;;;5066846;28;20028;-77
2023/03/13 10:00:43;;;;;;;14.88;3.42;;;20.50;99.90;;;;;;5070381;28;20149;-77
2023/03/13 10:03:15;;;;;;;17.00;3.42;;;20.40;99.90;;;;;;5076810;28;20024;-78
2023/03/13 10:05:54;;;;;;;14.23;4.50;;;20.20;99.90;;;;;;5080564;28;20118;-78
2023/03/13 10:08:43;;;;;;;17.80;3.70;;;20.00;99.90;;;;;;5085884;28;20158;-78
2023/03/13 10:11:28;;;;;;;12.63;3.15;;;20.30;99.90;;;;;;5072661;28;20404;-78
2023/03/13 10:14:10;;;;;;;11.88;2.47;;;20.40;99.90;;;;;;5073304;28;20043;-79
2023/03/13 10:17:08;;;;;;;16.10;3.28;;;20.30;99.90;;;;;;5076545;28;20060;-79
2023/03/13 10:19:41;;;;;;;14.55;3.30;;;20.00;99.90;;;;;;5029667;28;20033;-78
2023/03/13 10:22:18;;;;;;;15.80;3.90;;;19.90;99.90;;;;;;5053507;28;20029;-79
2023/03/13 10:24:50;;;;;;;11.50;3.08;;;19.90;99.90;;;;;;5053661;28;20029;-79
2023/03/13 10:27:16;;;;;;;16.60;3.13;;;20.00;99.90;;;;;;5035577;28;20036;-79
2023/03/13 10:29:42;;;;;;;18.60;3.60;;;19.80;99.90;;;;;;5053593;28;20064;-78
2023/03/13 10:32:13;;;;;;;15.18;4.15;;;19.70;99.90;;;;;;5052831;28;20044;-77
2023/03/13 10:34:48;;;;;;;21.23;4.07;;;19.90;99.90;;;;;;5053903;28;20025;-78
2023/03/13 10:37:19;;;;;;;16.25;3.80;;;20.20;99.90;;;;;;5062097;28;20032;-77
2023/03/13 10:39:46;;;;;;;14.40;3.05;;;20.30;99.90;;;;;;5088963;28;20065;-77
2023/03/13 10:42:40;;;;;;;17.15;3.55;;;20.50;99.90;;;;;;5091960;28;20064;-80
2023/03/13 10:45:06;;;;;;;17.00;3.35;;;20.60;99.90;;;;;;5093555;28;20043;-79
2023/03/13 10:47:33;;;;;;;15.75;3.38;;;20.40;99.90;;;;;;5093524;28;20464;-79
2023/03/13 10:50:04;;;;;;;20.73;3.10;;;20.10;99.90;;;;;;5079155;28;20044;-74
2023/03/13 10:52:35;;;;;;;13.55;2.92;;;20.30;99.90;;;;;;5054857;28;20044;-78
2023/03/13 10:55:09;;;;;;;14.52;2.80;;;20.40;99.90;;;;;;5053029;28;20025;-78
2023/03/13 10:57:36;;;;;;;16.60;3.10;;;20.40;99.90;;;;;;5078117;28;20032;-78
2023/03/13 11:00:35;;;;;;;18.05;3.92;;;20.70;99.90;;;;;;5056760;28;20116;-78
2023/03/13 11:03:06;;;;;;;16.25;3.38;;;20.80;99.90;;;;;;5034580;28;20506;-78
2023/03/13 11:05:53;;;;;;;16.75;3.00;;;20.40;99.90;;;;;;5053235;28;20039;-74
2023/03/13 11:08:32;;;;;;;15.20;3.53;;;20.40;99.90;;;;;;5065451;28;20358;-76
2023/03/13 11:11:16;;;;;;;17.50;3.00;;;20.60;99.90;;;;;;5052212;28;20121;-77
2023/03/13 11:14:12;;;;;;;18.55;3.35;;;20.60;99.90;;;;;;5095331;28;20073;-78
2023/03/13 11:16:55;;;;;;;16.70;3.20;;;20.40;99.90;;;;;;5093189;28;20016;-77
2023/03/13 11:19:44;;;;;;;13.40;2.15;;;20.30;99.90;;;;;;5092886;28;20401;-77
2023/03/13 11:22:12;;;;;;;21.77;3.20;;;20.70;99.90;;;;;;5091563;28;20060;-78
2023/03/13 11:24:51;;;;;;;18.60;3.15;;;20.80;99.90;;;;;;5093087;28;20030;-78
2023/03/13 11:27:23;;;;;;;22.10;3.17;;;20.20;99.90;;;;;;5092281;28;20032;-79
2023/03/13 11:30:16;;;;;;;18.17;3.88;;;20.50;99.90;;;;;;5093001;28;20012;-78
2023/03/13 11:32:54;;;;;;;18.83;3.85;;;20.40;99.90;;;;;;5108539;28;20066;-79
2023/03/13 11:35:46;;;;;;;12.60;3.40;;;20.40;99.90;;;;;;5093223;28;20020;-78
2023/03/13 11:38:40;;;;;;;20.05;3.38;;;20.50;99.90;;;;;;5028397;28;20069;-78
2023/03/13 11:41:26;;;;;;;15.05;2.88;;;20.60;99.90;;;;;;5050722;28;20040;-79
2023/03/13 11:44:02;;;;;;;;;;;20.60;99.90;;;;;;5068609;28;20033;-78
2023/03/13 11:46:58;;;;;;;16.83;3.67;;;20.70;99.90;;;;;;5052694;28;20000;-78
2023/03/13 11:50:00;;;;;;;17.48;3.28;;;20.60;99.90;;;;;;5052136;28;20025;-78
2023/03/13 11:52:54;;;;;;;20.20;3.33;;;20.50;99.90;;;;;;5051979;28;20048;-79
2023/03/13 11:55:40;;;;;;;23.35;3.63;;;20.50;99.90;;;;;;5053652;28;20090;-79
2023/03/13 11:58:21;;;;;;;20.08;3.80;;;20.30;99.90;;;;;;5054629;28;20017;-77
2023/03/13 12:01:17;;;;;;;17.00;3.88;;;20.20;99.90;;;;;;5079292;28;20036;-77
2023/03/13 12:03:58;;;;;;;16.98;3.60;;;20.20;99.90;;;;;;5073701;28;20027;-76
2023/03/13 12:06:32;;;;;;;18.75;3.22;;;20.20;99.90;;;;;;5071317;28;20074;-76
2023/03/13 12:09:24;;;;;;;16.50;3.50;;;20.30;99.90;;;;;;5071714;28;20473;-77
2023/03/13 12:12:04;;;;;;;17.42;3.47;;;20.00;99.90;;;;;;5063283;28;20059;-75
2023/03/13 12:14:36;;;;;;;14.15;3.10;;;20.20;99.90;;;;;;5071747;28;20020;-79
2023/03/13 12:17:09;;;;;;;14.95;3.20;;;20.50;99.90;;;;;;5072153;28;20040;-78
2023/03/13 12:19:46;;;;;;;14.38;3.45;;;20.40;99.90;;;;;;5076684;28;20028;-79
2023/03/13 12:22:35;;;;;;;18.10;3.53;;;20.70;99.90;;;;;;5092204;28;20522;-79
2023/03/13 12:25:30;;;;;;;16.00;3.22;;;20.70;99.90;;;;;;5091865;28;20028;-79
2023/03/13 12:28:23;;;;;;;17.13;3.35;;;20.50;99.90;;;;;;5092331;28;20089;-75
2023/03/13 12:31:04;;;;;;;20.90;3.65;;;19.90;99.90;;;;;;5092311;28;20463;-78
2023/03/13 12:33:43;;;;;;;16.60;3.15;;;20.10;99.90;;;;;;5092819;28;20468;-78
2023/03/13 12:36:40;;;;;;;20.15;3.25;;;20.20;99.90;;;;;;5091585;28;20032;-78
2023/03/13 12:39:28;;;;;;;14.20;3.03;;;20.30;99.90;;;;;;5050592;28;20363;-79
2023/03/13 12:42:27;;;;;;;18.52;3.05;;;20.40;99.90;;;;;;5056526;28;20470;-79
2023/03/13 12:44:57;;;;;;;16.00;3.25;;;20.30;99.90;;;;;;5061611;28;20024;-77
2023/03/13 12:47:37;;;;;;;16.27;3.20;;;19.90;99.90;;;;;;5083507;28;20047;-78
2023/03/13 12:50:50;;;;;;;13.05;2.78;;;20.10;99.90;;;;;;5074626;28;20021;-79
2023/03/13 12:53:42;;;;;;;16.65;3.42;;;20.00;99.90;;;;;;5013623;28;20049;-77
2023/03/13 12:56:25;;;;;;;17.67;3.25;;;20.10;99.90;;;;;;5014527;28;20110;-77
2023/03/13 12:59:07;;;;;;;15.35;3.08;;;20.20;99.90;;;;;;5014082;28;20108;-78